Richmond South's Hourly Summary for Tuesday, May 15, 2018
Hour Temp
(f)
RH
(%)
Solar Rad.
(MJ/m2)
Rainfall
(in)
Wind
(mph)
5/15/2018 12:00 AM 70 83 0 0 0.6
5/15/2018 1:00 AM 69 87 0 0 0
5/15/2018 2:00 AM 69 90 0 0 0
5/15/2018 3:00 AM 68 90 0 0 0
5/15/2018 4:00 AM 67 91 0 0 0
5/15/2018 5:00 AM 67 95 0 0 0
5/15/2018 6:00 AM 64 95 0 0 0
5/15/2018 7:00 AM 63 96 0.03 0 0
5/15/2018 8:00 AM 68 95 0.4 0 0.55
5/15/2018 9:00 AM 75 77 0.72 0 3.78
5/15/2018 10:00 AM 77 68 1.44 0 4.17
5/15/2018 11:00 AM 81 54 2.37 0 4.74
5/15/2018 12:00 PM 84 42 2.99 0 4.03
5/15/2018 1:00 PM 87 40 3.32 0 4.59
5/15/2018 2:00 PM 89 36 3.39 0 4.9
5/15/2018 3:00 PM 91 32 3.27 0 5.57
5/15/2018 4:00 PM 92 30 2.92 0 7.28
5/15/2018 5:00 PM 92 28 2.18 0 9.4
5/15/2018 6:00 PM 91 29 1.72 0 10.74
5/15/2018 7:00 PM 88 34 1.02 0 10.06
5/15/2018 8:00 PM 84 42 0.25 0 7.24
5/15/2018 9:00 PM 79 52 0 0 4.27
5/15/2018 10:00 PM 76 61 0 0 1.36
5/15/2018 11:00 PM 74 64 0 0 1.2
Data Summary 77 62 26.02 0.00 3.52